createdAt,value
2018-09-02T08:22:48.898Z,57.80
2018-09-02T08:25:16.507Z,58.00
2018-09-02T08:27:44.252Z,58.30
2018-09-02T08:30:11.917Z,58.40
2018-09-02T08:32:40.571Z,58.10
2018-09-02T08:35:08.127Z,57.90
2018-09-02T08:37:35.862Z,57.70
2018-09-02T08:40:03.799Z,58.10
2018-09-02T08:42:31.469Z,58.30
2018-09-02T08:44:59.526Z,58.10
2018-09-02T08:47:28.230Z,57.90
2018-09-02T08:49:56.044Z,58.40
2018-09-02T08:52:23.695Z,58.20
2018-09-02T08:54:51.335Z,58.60
2018-09-02T08:57:19.023Z,58.50
2018-09-02T08:59:46.682Z,58.00
2018-09-02T09:02:14.367Z,58.20
2018-09-02T09:04:42.023Z,58.50
2018-09-02T09:07:09.646Z,58.70
2018-09-02T09:09:37.272Z,58.90
2018-09-02T09:12:05.047Z,58.90
2018-09-02T09:14:32.767Z,58.80
2018-09-02T09:17:00.577Z,58.50
2018-09-02T09:19:28.240Z,58.70
2018-09-02T09:21:55.876Z,58.60
2018-09-02T09:24:23.508Z,59.10
2018-09-02T09:26:51.210Z,59.50
2018-09-02T09:29:18.805Z,59.90
2018-09-02T09:31:46.603Z,59.40
2018-09-02T09:34:14.213Z,58.90
2018-09-02T09:36:42.074Z,59.30
2018-09-02T09:39:10.643Z,59.70
2018-09-02T09:41:38.436Z,59.70
2018-09-02T09:44:06.428Z,59.70
2018-09-02T09:46:34.286Z,60.20
2018-09-02T09:49:02.141Z,60.20
2018-09-02T09:51:30.030Z,59.50
2018-09-02T09:53:57.662Z,59.40
2018-09-02T09:56:25.349Z,59.90
2018-09-02T09:58:53.059Z,60.00
2018-09-02T10:01:20.767Z,60.00
2018-09-02T10:03:48.487Z,60.40
2018-09-02T10:06:16.060Z,60.70
2018-09-02T10:08:43.733Z,60.60
2018-09-02T10:11:11.311Z,60.90
2018-09-02T10:13:38.990Z,61.40
2018-09-02T10:16:06.666Z,61.60
2018-09-02T10:18:34.335Z,61.10
2018-09-02T10:21:01.887Z,61.90
2018-09-02T10:23:29.599Z,62.50
2018-09-02T10:25:57.177Z,62.00
2018-09-02T10:28:24.831Z,61.90
2018-09-02T10:30:52.474Z,62.10
2018-09-02T10:33:20.323Z,63.20
2018-09-02T10:35:47.978Z,63.10
2018-09-02T10:38:15.671Z,62.40
2018-09-02T10:40:44.198Z,62.80
2018-09-02T10:43:14.999Z,62.90
2018-09-02T10:45:46.090Z,63.90
2018-09-02T10:48:15.401Z,62.60
2018-09-02T10:50:47.333Z,63.30
2018-09-02T10:53:19.915Z,63.40
2018-09-02T10:55:47.791Z,63.10
2018-09-02T10:58:15.442Z,63.90
2018-09-02T11:00:43.204Z,63.90
2018-09-02T11:03:11.730Z,63.30
2018-09-02T11:05:39.357Z,63.60
2018-09-02T11:08:07.071Z,64.10
2018-09-02T11:10:34.898Z,63.10
2018-09-02T11:13:02.543Z,63.00
2018-09-02T11:15:30.273Z,63.30
2018-09-02T11:17:58.767Z,62.70
2018-09-02T11:20:26.573Z,62.60
2018-09-02T11:22:54.683Z,62.30
2018-09-02T11:25:22.672Z,62.00
2018-09-02T11:27:50.550Z,61.60
2018-09-02T11:30:18.435Z,61.30
2018-09-02T11:32:46.378Z,61.00
2018-09-02T11:35:14.230Z,60.70
2018-09-02T11:37:41.914Z,61.80
2018-09-02T11:40:09.594Z,62.00
2018-09-02T11:42:37.302Z,61.70
2018-09-02T11:45:05.337Z,62.00
2018-09-02T11:47:32.944Z,62.20
2018-09-02T11:50:00.567Z,62.20
2018-09-02T11:52:28.398Z,62.40
2018-09-02T11:54:56.118Z,62.40
2018-09-02T11:57:23.834Z,62.60
2018-09-02T11:59:51.536Z,62.10
2018-09-02T12:02:19.172Z,62.70
2018-09-02T12:04:46.926Z,63.30
2018-09-02T12:07:14.937Z,63.70
2018-09-02T12:09:42.840Z,63.60
2018-09-02T12:12:11.056Z,63.70
2018-09-02T12:14:38.783Z,63.90
2018-09-02T12:17:12.186Z,64.70
2018-09-02T12:19:39.855Z,64.60
2018-09-02T12:22:07.658Z,64.80
2018-09-02T12:24:35.303Z,65.00
2018-09-02T12:27:02.935Z,65.00
2018-09-02T12:29:31.347Z,65.30
2018-09-02T12:31:59.011Z,65.30
2018-09-02T12:34:27.347Z,65.20
2018-09-02T12:36:55.032Z,65.60
2018-09-02T12:39:22.755Z,65.50
2018-09-02T12:41:50.406Z,65.30
2018-09-02T12:44:18.103Z,65.10
2018-09-02T12:46:45.811Z,64.90
2018-09-02T12:49:13.461Z,64.60
2018-09-02T12:51:41.112Z,64.40
2018-09-02T12:54:08.790Z,64.70
2018-09-02T12:56:36.411Z,64.50
2018-09-02T12:59:04.255Z,64.70
2018-09-02T13:01:31.946Z,64.70
2018-09-02T13:03:59.658Z,65.40
2018-09-02T13:06:27.274Z,65.80
2018-09-02T13:08:55.151Z,66.00
2018-09-02T13:11:24.099Z,66.70
2018-09-02T13:13:51.807Z,67.40
2018-09-02T13:16:19.630Z,66.70
2018-09-02T13:18:47.369Z,66.70
2018-09-02T13:21:15.090Z,66.90
2018-09-02T13:23:42.731Z,67.50
2018-09-02T13:26:10.384Z,67.20
2018-09-02T13:28:38.378Z,67.50
2018-09-02T13:31:06.123Z,67.90
2018-09-02T13:33:34.085Z,67.80
2018-09-02T13:36:01.747Z,67.90
2018-09-02T13:38:29.454Z,67.60
2018-09-02T13:40:57.186Z,67.50
2018-09-02T13:43:24.872Z,67.20
2018-09-02T13:45:52.523Z,67.30
2018-09-02T13:48:20.197Z,67.30
2018-09-02T13:50:47.844Z,67.30
2018-09-02T13:53:15.479Z,67.70
2018-09-02T13:55:43.130Z,67.70
2018-09-02T13:58:10.725Z,67.50
2018-09-02T14:00:38.411Z,67.50
2018-09-02T14:03:06.079Z,67.70
2018-09-02T14:05:33.759Z,67.90
2018-09-02T14:08:01.619Z,68.00
2018-09-02T14:10:29.059Z,67.90
2018-09-02T14:12:56.722Z,68.00
2018-09-02T14:15:24.406Z,68.10
2018-09-02T14:17:52.122Z,68.30
2018-09-02T14:20:19.796Z,68.10
2018-09-02T14:22:47.542Z,68.10
2018-09-02T14:25:15.326Z,67.90
2018-09-02T14:27:43.668Z,67.80
2018-09-02T14:30:11.394Z,68.00
2018-09-02T14:32:39.101Z,67.90
2018-09-02T14:35:07.405Z,68.30
2018-09-02T14:37:36.305Z,67.70
2018-09-02T14:40:04.039Z,68.40
2018-09-02T14:42:31.799Z,68.50
2018-09-02T14:45:01.335Z,68.10
2018-09-02T14:47:29.229Z,68.10
2018-09-02T14:49:57.029Z,68.50
2018-09-02T14:52:24.731Z,68.30
2018-09-02T14:54:52.439Z,68.50
2018-09-02T14:57:20.107Z,68.20
2018-09-02T14:59:47.853Z,67.60
2018-09-02T15:02:15.574Z,68.20
2018-09-02T15:04:43.303Z,68.20
2018-09-02T15:07:11.002Z,68.00
2018-09-02T15:09:38.572Z,68.30
2018-09-02T15:12:06.202Z,68.10
2018-09-02T15:14:33.913Z,68.40
2018-09-02T15:17:01.568Z,68.30
2018-09-02T15:19:29.200Z,68.30
2018-09-02T15:21:56.847Z,68.60
2018-09-02T15:24:24.505Z,68.60
2018-09-02T15:26:52.207Z,68.40
2018-09-02T15:29:19.788Z,68.50
2018-09-02T15:31:47.442Z,69.00
2018-09-02T15:34:15.039Z,69.20
2018-09-02T15:36:42.823Z,69.00
2018-09-02T15:39:11.287Z,68.50
2018-09-02T15:41:39.443Z,69.20
2018-09-02T15:44:07.441Z,70.30
2018-09-02T15:46:35.739Z,70.20
2018-09-02T15:49:04.556Z,70.80
2018-09-02T15:51:32.158Z,70.80
2018-09-02T15:53:59.803Z,71.10
2018-09-02T15:56:28.299Z,71.50
2018-09-02T15:58:55.899Z,71.70
2018-09-02T16:01:23.529Z,72.20
2018-09-02T16:03:51.222Z,72.10
2018-09-02T16:06:19.033Z,72.40
2018-09-02T16:08:47.028Z,72.60
2018-09-02T16:11:14.675Z,72.40
2018-09-02T16:13:42.339Z,72.80
2018-09-02T16:16:10.202Z,72.90
2018-09-02T16:18:38.093Z,72.90
2018-09-02T16:21:06.046Z,72.60
2018-09-02T16:23:33.734Z,72.60
2018-09-02T16:26:01.637Z,72.80
2018-09-02T16:28:29.377Z,72.60
2018-09-02T16:30:57.346Z,72.60
2018-09-02T16:33:25.082Z,72.80
2018-09-02T16:35:53.313Z,72.90
2018-09-02T16:38:20.973Z,73.10
2018-09-02T16:40:48.810Z,72.80
2018-09-02T16:43:16.500Z,73.00
2018-09-02T16:45:44.102Z,73.10
2018-09-02T16:48:11.787Z,73.30
2018-09-02T16:50:39.552Z,73.20
2018-09-02T16:53:07.354Z,73.40
2018-09-02T16:55:35.010Z,73.50
2018-09-02T16:58:02.709Z,73.90
2018-09-02T17:00:30.371Z,74.00
2018-09-02T17:02:58.297Z,74.30
2018-09-02T17:05:25.836Z,74.50
2018-09-02T17:07:54.311Z,74.90
2018-09-02T17:10:23.390Z,74.80
2018-09-02T17:12:51.512Z,74.90
2018-09-02T17:15:19.257Z,75.20
2018-09-02T17:17:47.794Z,75.20
2018-09-02T17:20:50.109Z,74.60
2018-09-02T17:23:18.694Z,75.00
2018-09-02T17:25:46.974Z,75.50
2018-09-02T17:28:14.971Z,75.10
2018-09-02T17:30:43.693Z,74.90
2018-09-02T17:33:13.110Z,75.20
2018-09-02T17:35:41.171Z,75.60
2018-09-02T17:38:13.280Z,75.50
2018-09-02T17:40:42.081Z,75.50
2018-09-02T17:43:16.296Z,75.90
2018-09-02T17:45:45.766Z,76.50
2018-09-02T17:48:14.366Z,76.90
2018-09-02T17:50:42.939Z,77.10
2018-09-02T17:53:10.610Z,76.90
2018-09-02T17:55:38.324Z,76.80
2018-09-02T17:58:06.191Z,77.00
2018-09-02T18:00:56.146Z,77.20
2018-09-02T18:03:23.843Z,77.30
2018-09-02T18:05:51.735Z,77.70
2018-09-02T18:08:19.434Z,77.90
2018-09-02T18:10:47.156Z,77.90
2018-09-02T18:13:15.227Z,78.50
2018-09-02T18:15:42.860Z,77.60
2018-09-02T18:18:10.538Z,78.10
2018-09-02T18:20:38.363Z,78.60
2018-09-02T18:23:06.047Z,78.70
2018-09-02T18:25:33.700Z,79.00
2018-09-02T18:28:03.734Z,79.10
2018-09-02T18:30:31.395Z,79.10
2018-09-02T18:32:59.056Z,79.00
2018-09-02T18:35:26.684Z,79.20
2018-09-02T18:37:54.316Z,79.20
2018-09-02T18:40:21.949Z,79.50
2018-09-02T18:42:50.348Z,79.30
2018-09-02T18:45:18.304Z,79.10
2018-09-02T18:47:47.168Z,79.80
2018-09-02T18:50:14.802Z,79.80
2018-09-02T18:52:43.548Z,80.00
2018-09-02T18:55:11.992Z,80.30
2018-09-02T18:57:40.295Z,80.30
2018-09-02T19:00:08.795Z,80.20
2018-09-02T19:02:37.076Z,80.20
2018-09-02T19:05:05.457Z,80.70
2018-09-02T19:07:33.949Z,81.10
2018-09-02T19:10:02.630Z,81.20
2018-09-02T19:12:30.579Z,81.00
2018-09-02T19:14:58.353Z,81.10
2018-09-02T19:17:25.919Z,81.40
2018-09-02T19:19:53.622Z,81.20
2018-09-02T19:24:49.232Z,81.30
2018-09-02T19:27:17.770Z,81.50
2018-09-02T19:29:45.498Z,80.80
2018-09-02T19:32:13.568Z,80.60
2018-09-02T19:34:42.050Z,80.60
2018-09-02T19:37:09.665Z,81.10
2018-09-02T19:39:37.627Z,81.30
2018-09-02T19:42:05.590Z,82.00
2018-09-02T19:44:33.322Z,82.70
2018-09-02T19:47:02.246Z,83.20
2018-09-02T19:49:30.299Z,83.40
2018-09-02T19:51:58.832Z,83.60
2018-09-02T19:54:27.756Z,83.50
2018-09-02T19:56:56.275Z,83.10
2018-09-02T19:59:23.927Z,83.90
2018-09-02T20:01:51.975Z,83.70
2018-09-02T20:04:20.027Z,83.50
2018-09-02T20:06:48.902Z,82.90
2018-09-02T20:09:16.544Z,83.20
2018-09-02T20:11:44.636Z,82.90
2018-09-02T20:14:12.829Z,83.00
2018-09-02T20:16:40.592Z,82.70
2018-09-02T20:19:08.391Z,82.90
2018-09-02T20:21:36.110Z,82.60
2018-09-02T20:24:04.235Z,82.80
2018-09-02T20:26:32.502Z,83.20
2018-09-02T20:29:00.223Z,83.40
2018-09-02T20:31:28.364Z,82.90
2018-09-02T20:33:56.355Z,83.10
2018-09-02T20:36:24.443Z,83.10
2018-09-02T20:38:52.505Z,83.00
2018-09-02T20:41:20.822Z,83.20
2018-09-02T20:43:48.538Z,83.20
2018-09-02T20:46:16.654Z,82.90
2018-09-02T20:48:44.278Z,82.90
2018-09-02T20:51:11.964Z,82.70
2018-09-02T20:53:39.955Z,83.00
2018-09-02T20:56:07.978Z,82.40
2018-09-02T20:58:35.930Z,82.80
2018-09-02T21:01:04.627Z,83.10
2018-09-02T21:03:32.667Z,83.10
2018-09-02T21:06:00.973Z,83.60
2018-09-02T21:08:28.686Z,83.90
2018-09-02T21:10:56.522Z,84.40
2018-09-02T21:13:24.330Z,84.50
2018-09-02T21:15:51.987Z,85.20
2018-09-02T21:18:20.099Z,85.70
2018-09-02T21:20:48.090Z,86.50
2018-09-02T21:23:15.772Z,86.60
2018-09-02T21:25:43.437Z,86.80
2018-09-02T21:28:11.047Z,87.40
2018-09-02T21:30:39.123Z,87.50
2018-09-02T21:33:07.246Z,88.40
2018-09-02T21:35:35.563Z,88.80
2018-09-02T21:38:03.774Z,88.50
2018-09-02T21:40:31.739Z,88.60
2018-09-02T21:42:59.739Z,88.50
2018-09-02T21:45:27.938Z,88.40
2018-09-02T21:47:55.970Z,88.80
2018-09-02T21:50:23.732Z,89.20
2018-09-02T21:52:51.451Z,89.50
2018-09-02T21:55:19.090Z,90.00
2018-09-02T21:57:46.962Z,90.20
2018-09-02T22:00:15.880Z,90.50
2018-09-02T22:02:43.583Z,90.80
2018-09-02T22:05:12.629Z,91.10
2018-09-02T22:07:40.943Z,91.30
2018-09-02T22:10:08.643Z,91.50
2018-09-02T22:12:36.284Z,91.70
2018-09-02T22:15:04.299Z,92.00
2018-09-02T22:17:32.066Z,91.90
2018-09-02T22:20:00.001Z,91.80
2018-09-02T22:22:27.636Z,92.30
2018-09-02T22:24:55.215Z,92.60
2018-09-02T22:27:23.191Z,92.50
2018-09-02T22:29:50.882Z,92.70
2018-09-02T22:32:19.361Z,92.80
2018-09-02T22:34:47.012Z,92.60
2018-09-02T22:37:14.668Z,92.70
2018-09-02T22:39:42.614Z,92.70
2018-09-02T22:42:10.282Z,92.70
2018-09-02T22:44:37.874Z,92.40
2018-09-02T22:47:05.610Z,92.40
2018-09-02T22:49:33.197Z,92.60
2018-09-02T22:52:00.882Z,92.60
2018-09-02T22:54:28.491Z,92.80
2018-09-02T22:56:56.128Z,92.60
2018-09-02T22:59:23.792Z,92.90
2018-09-02T23:01:51.502Z,93.10
2018-09-02T23:04:19.470Z,93.30
2018-09-02T23:06:47.219Z,93.10
2018-09-02T23:09:14.895Z,93.00
2018-09-02T23:11:42.574Z,93.00
2018-09-02T23:14:10.222Z,93.10
2018-09-02T23:16:37.923Z,93.20
2018-09-02T23:19:05.494Z,93.20
2018-09-02T23:21:33.194Z,93.40
2018-09-02T23:24:01.012Z,93.30
2018-09-02T23:26:28.738Z,93.40
2018-09-02T23:28:56.756Z,93.50
2018-09-02T23:31:24.416Z,93.40
2018-09-02T23:33:52.032Z,93.50
2018-09-02T23:36:19.886Z,93.70
2018-09-02T23:38:47.625Z,93.70
2018-09-02T23:41:15.347Z,93.80
2018-09-02T23:43:43.145Z,94.00
2018-09-02T23:46:11.026Z,94.20
2018-09-02T23:48:39.503Z,94.10
2018-09-02T23:51:07.126Z,94.10
2018-09-02T23:53:34.759Z,94.00
2018-09-02T23:56:02.407Z,94.10
2018-09-02T23:58:30.041Z,93.80
